createdAt,value
2018-08-12T00:00:15.549Z,1014.36
2018-08-12T00:00:41.680Z,1014.36
2018-08-12T00:01:07.811Z,1014.37
2018-08-12T00:01:33.951Z,1014.34
2018-08-12T00:02:00.085Z,1014.35
2018-08-12T00:02:26.226Z,1014.34
2018-08-12T00:02:52.360Z,1014.34
2018-08-12T00:03:18.490Z,1014.35
2018-08-12T00:03:44.626Z,1014.33
2018-08-12T00:04:10.762Z,1014.34
2018-08-12T00:04:36.884Z,1014.34
2018-08-12T00:05:03.024Z,1014.33
2018-08-12T00:05:29.205Z,1014.33
2018-08-12T00:05:55.337Z,1014.35
2018-08-12T00:06:21.476Z,1014.33
2018-08-12T00:06:47.629Z,1014.32
2018-08-12T00:07:13.802Z,1014.29
2018-08-12T00:07:39.986Z,1014.28
2018-08-12T00:08:06.141Z,1014.33
2018-08-12T00:08:32.279Z,1014.29
2018-08-12T00:08:58.410Z,1014.29
2018-08-12T00:09:24.545Z,1014.31
2018-08-12T00:09:50.705Z,1014.3
2018-08-12T00:10:16.850Z,1014.27
2018-08-12T00:10:42.982Z,1014.31
2018-08-12T00:11:09.122Z,1014.27
2018-08-12T00:11:35.255Z,1014.29
2018-08-12T00:12:01.423Z,1014.27
2018-08-12T00:12:27.575Z,1014.25
2018-08-12T00:12:53.707Z,1014.22
2018-08-12T00:13:19.845Z,1014.26
2018-08-12T00:13:45.999Z,1014.25
2018-08-12T00:14:12.160Z,1014.22
2018-08-12T00:14:38.299Z,1014.24
2018-08-12T00:15:04.452Z,1014.22
2018-08-12T00:15:30.594Z,1014.22
2018-08-12T00:15:56.729Z,1014.21
2018-08-12T00:16:29.126Z,1014.22
2018-08-12T00:16:55.266Z,1014.25
2018-08-12T00:17:21.404Z,1014.26
2018-08-12T00:17:47.535Z,1014.21
2018-08-12T00:18:13.658Z,1014.2
2018-08-12T00:18:39.795Z,1014.21
2018-08-12T00:19:05.933Z,1014.18
2018-08-12T00:19:32.067Z,1014.2
2018-08-12T00:19:58.207Z,1014.18
2018-08-12T00:20:24.359Z,1014.19
2018-08-12T00:20:50.502Z,1014.2
2018-08-12T00:21:16.633Z,1014.19
2018-08-12T00:21:42.772Z,1014.16
2018-08-12T00:22:08.901Z,1014.18
2018-08-12T00:22:35.040Z,1014.18
2018-08-12T00:23:01.191Z,1014.18
2018-08-12T00:23:27.351Z,1014.18
2018-08-12T00:23:53.514Z,1014.18
2018-08-12T00:24:19.652Z,1014.13
2018-08-12T00:24:45.802Z,1014.17
2018-08-12T00:25:11.933Z,1014.14
2018-08-12T00:25:39.369Z,1014.16
2018-08-12T00:26:06.368Z,1014.13
2018-08-12T00:26:32.425Z,1014.12
2018-08-12T00:26:58.556Z,1014.09
2018-08-12T00:27:24.697Z,1014.13
2018-08-12T00:27:50.826Z,1014.1
2018-08-12T00:28:19.150Z,1014.14
2018-08-12T00:28:47.083Z,1014.11
2018-08-12T00:29:14.682Z,1014.09
2018-08-12T00:29:41.835Z,1014.1
2018-08-12T00:30:08.380Z,1014.11
2018-08-12T00:30:34.511Z,1014.08
2018-08-12T00:31:00.641Z,1014.1
2018-08-12T00:31:26.778Z,1014.09
2018-08-12T00:31:52.938Z,1014.11
2018-08-12T00:32:19.087Z,1014.09
2018-08-12T00:32:45.222Z,1014.08
2018-08-12T00:33:11.364Z,1014.08
2018-08-12T00:33:37.495Z,1014.05
2018-08-12T00:34:03.660Z,1014.08
2018-08-12T00:34:29.935Z,1014.07
2018-08-12T00:34:56.095Z,1014.07
2018-08-12T00:35:22.229Z,1014.04
2018-08-12T00:35:48.368Z,1014.05
2018-08-12T00:36:14.520Z,1014.06
2018-08-12T00:36:40.652Z,1014.03
2018-08-12T00:37:06.789Z,1014.03
2018-08-12T00:37:32.919Z,1014.01
2018-08-12T00:37:59.075Z,1014.04
2018-08-12T00:38:25.214Z,1014.02
2018-08-12T00:38:51.344Z,1014.05
2018-08-12T00:39:17.498Z,1014
2018-08-12T00:39:43.638Z,1014.04
2018-08-12T00:40:09.797Z,1014.01
2018-08-12T00:40:35.936Z,1014.04
2018-08-12T00:41:02.063Z,1014
2018-08-12T00:41:28.203Z,1014.02
2018-08-12T00:41:54.332Z,1014.08
2018-08-12T00:42:20.465Z,1014.01
2018-08-12T00:42:46.607Z,1014.03
2018-08-12T00:43:12.743Z,1014.06
2018-08-12T00:43:38.875Z,1014.06
2018-08-12T00:44:05.012Z,1014.03
2018-08-12T00:44:31.166Z,1014.03
2018-08-12T00:44:57.303Z,1014.05
2018-08-12T00:45:23.467Z,1014.03
2018-08-12T00:45:49.599Z,1014.05
2018-08-12T00:46:15.728Z,1014.08
2018-08-12T00:46:41.891Z,1014.08
2018-08-12T00:47:08.022Z,1014.1
2018-08-12T00:47:34.161Z,1014.08
2018-08-12T00:48:00.320Z,1014.06
2018-08-12T00:48:26.452Z,1014.07
2018-08-12T00:48:52.586Z,1014.12
2018-08-12T00:49:18.730Z,1014.1
2018-08-12T00:49:44.851Z,1014.07
2018-08-12T00:50:10.996Z,1014.1
2018-08-12T00:50:37.126Z,1014.04
2018-08-12T00:51:03.255Z,1014.09
2018-08-12T00:51:29.398Z,1014.12
2018-08-12T00:51:55.525Z,1014.1
2018-08-12T00:52:21.681Z,1014.12
2018-08-12T00:52:47.822Z,1014.12
2018-08-12T00:53:13.984Z,1014.1
2018-08-12T00:53:40.114Z,1014.09
2018-08-12T00:54:06.299Z,1014.11
2018-08-12T00:54:32.429Z,1014.09
2018-08-12T00:54:58.584Z,1014.1
2018-08-12T00:55:24.719Z,1014.07
2018-08-12T00:55:50.858Z,1014.11
2018-08-12T00:56:17.008Z,1014.09
2018-08-12T00:56:43.144Z,1014.08
2018-08-12T00:57:09.283Z,1014.06
2018-08-12T00:57:35.417Z,1014.07
2018-08-12T00:58:01.548Z,1014.04
2018-08-12T00:58:27.681Z,1014.06
2018-08-12T00:58:53.813Z,1014.07
2018-08-12T00:59:19.974Z,1014.09
2018-08-12T00:59:46.108Z,1014.05
2018-08-12T01:00:12.242Z,1014.07
2018-08-12T01:00:38.370Z,1014.09
2018-08-12T01:01:04.529Z,1014.1
2018-08-12T01:01:30.660Z,1014.1
2018-08-12T01:01:56.824Z,1014.1
2018-08-12T01:02:22.951Z,1014.1
2018-08-12T01:02:49.090Z,1014.09
2018-08-12T01:03:15.251Z,1014.08
2018-08-12T01:03:41.379Z,1014.09
2018-08-12T01:04:07.543Z,1014.06
2018-08-12T01:04:33.685Z,1014.08
2018-08-12T01:04:59.813Z,1014.04
2018-08-12T01:05:25.963Z,1014.04
2018-08-12T01:05:52.105Z,1014.04
2018-08-12T01:06:18.289Z,1014.02
2018-08-12T01:06:44.450Z,1014.02
2018-08-12T01:07:10.585Z,1014.01
2018-08-12T01:07:36.718Z,1014.01
2018-08-12T01:08:02.862Z,1014.04
2018-08-12T01:08:28.998Z,1014.04
2018-08-12T01:08:55.129Z,1014.03
2018-08-12T01:09:21.260Z,1014.03
2018-08-12T01:09:47.403Z,1014.04
2018-08-12T01:10:13.529Z,1014.04
2018-08-12T01:10:39.672Z,1014.02
2018-08-12T01:11:05.802Z,1013.96
2018-08-12T01:11:31.933Z,1013.98
2018-08-12T01:11:58.348Z,1014
2018-08-12T01:12:24.505Z,1013.97
2018-08-12T01:12:50.666Z,1013.94
2018-08-12T01:13:16.858Z,1013.97
2018-08-12T01:13:42.998Z,1013.99
2018-08-12T01:14:09.166Z,1013.96
2018-08-12T01:14:35.336Z,1013.97
2018-08-12T01:15:01.486Z,1013.96
2018-08-12T01:15:27.617Z,1013.94
2018-08-12T01:15:53.747Z,1013.93
2018-08-12T01:16:19.884Z,1013.92
2018-08-12T01:16:46.021Z,1013.95
2018-08-12T01:17:12.150Z,1013.93
2018-08-12T01:17:38.285Z,1013.95
2018-08-12T01:18:04.444Z,1013.98
2018-08-12T01:18:30.583Z,1013.98
2018-08-12T01:18:56.717Z,1013.99
2018-08-12T01:19:22.870Z,1013.99
2018-08-12T01:19:49.026Z,1013.98
2018-08-12T01:20:15.166Z,1013.97
2018-08-12T01:20:41.296Z,1014
2018-08-12T01:21:07.830Z,1014.02
2018-08-12T01:21:33.960Z,1014.01
2018-08-12T01:22:00.092Z,1013.98
2018-08-12T01:22:26.243Z,1014.01
2018-08-12T01:22:52.387Z,1014.01
2018-08-12T01:23:18.560Z,1014.01
2018-08-12T01:23:44.666Z,1014.01
2018-08-12T01:24:10.804Z,1014.01
2018-08-12T01:24:36.938Z,1014.01
2018-08-12T01:25:03.103Z,1013.98
2018-08-12T01:25:29.251Z,1013.98
2018-08-12T01:25:55.388Z,1013.96
2018-08-12T01:26:21.521Z,1013.95
2018-08-12T01:26:47.713Z,1013.96
2018-08-12T01:27:13.935Z,1013.96
2018-08-12T01:27:40.095Z,1013.95
2018-08-12T01:28:06.252Z,1013.95
2018-08-12T01:28:32.388Z,1013.92
2018-08-12T01:28:58.523Z,1013.93
2018-08-12T01:29:24.664Z,1013.98
2018-08-12T01:29:50.801Z,1013.97
2018-08-12T01:30:16.975Z,1013.93
2018-08-12T01:30:43.207Z,1013.94
2018-08-12T01:31:09.538Z,1013.91
2018-08-12T01:31:35.681Z,1013.97
2018-08-12T01:32:01.798Z,1013.96
2018-08-12T01:32:27.952Z,1013.96
2018-08-12T01:32:54.089Z,1013.93
2018-08-12T01:33:20.219Z,1013.94
2018-08-12T01:33:46.351Z,1013.97
2018-08-12T01:34:12.485Z,1013.94
2018-08-12T01:34:38.943Z,1013.96
2018-08-12T01:35:05.156Z,1013.95
2018-08-12T01:35:31.324Z,1013.98
2018-08-12T01:35:57.483Z,1013.99
2018-08-12T01:36:23.618Z,1013.98
2018-08-12T01:36:49.744Z,1013.97
2018-08-12T01:37:15.886Z,1013.98
2018-08-12T01:37:42.047Z,1013.98
2018-08-12T01:38:08.193Z,1013.94
2018-08-12T01:38:34.361Z,1013.95
2018-08-12T01:39:00.517Z,1013.95
2018-08-12T01:39:26.656Z,1013.95
2018-08-12T01:39:52.793Z,1013.93
2018-08-12T01:40:18.957Z,1013.95
2018-08-12T01:40:45.094Z,1013.94
2018-08-12T01:41:11.247Z,1013.93
2018-08-12T01:41:37.384Z,1013.91
2018-08-12T01:42:03.543Z,1013.91
2018-08-12T01:42:29.970Z,1013.92
2018-08-12T01:42:56.174Z,1013.87
2018-08-12T01:43:22.318Z,1013.9
2018-08-12T01:43:48.448Z,1013.87
2018-08-12T01:44:14.612Z,1013.88
2018-08-12T01:44:40.753Z,1013.88
2018-08-12T01:45:06.955Z,1013.89
2018-08-12T01:45:33.089Z,1013.85
2018-08-12T01:45:59.273Z,1013.84
2018-08-12T01:46:25.562Z,1013.83
2018-08-12T01:46:51.697Z,1013.8
2018-08-12T01:47:17.884Z,1013.83
2018-08-12T01:47:44.020Z,1013.83
2018-08-12T01:48:10.152Z,1013.83
2018-08-12T01:48:36.291Z,1013.83
2018-08-12T01:49:02.448Z,1013.82
2018-08-12T01:49:28.581Z,1013.83
2018-08-12T01:49:54.721Z,1013.82
2018-08-12T01:50:20.865Z,1013.83
2018-08-12T01:50:46.994Z,1013.8
2018-08-12T01:51:13.132Z,1013.82
2018-08-12T01:51:39.268Z,1013.82
2018-08-12T01:52:05.422Z,1013.82
2018-08-12T01:52:31.583Z,1013.82
2018-08-12T01:52:57.719Z,1013.79
2018-08-12T01:53:23.860Z,1013.76
2018-08-12T01:53:49.991Z,1013.75
2018-08-12T01:54:16.145Z,1013.77
2018-08-12T01:54:42.354Z,1013.75
2018-08-12T01:55:08.499Z,1013.76
2018-08-12T01:55:34.633Z,1013.73
2018-08-12T01:56:00.786Z,1013.74
2018-08-12T01:56:26.924Z,1013.72
2018-08-12T01:56:53.054Z,1013.71
2018-08-12T01:57:19.193Z,1013.7
2018-08-12T01:57:45.347Z,1013.66
2018-08-12T01:58:11.494Z,1013.69
2018-08-12T01:58:37.654Z,1013.7
2018-08-12T01:59:04.652Z,1013.67
2018-08-12T01:59:30.736Z,1013.66
2018-08-12T01:59:56.900Z,1013.65
2018-08-12T02:00:23.070Z,1013.63
2018-08-12T02:00:49.203Z,1013.62
2018-08-12T02:01:15.347Z,1013.62
2018-08-12T02:01:41.516Z,1013.61
2018-08-12T02:02:07.813Z,1013.61
2018-08-12T02:02:33.965Z,1013.61
2018-08-12T02:03:00.101Z,1013.59
2018-08-12T02:03:26.234Z,1013.57
2018-08-12T02:03:52.374Z,1013.59
2018-08-12T02:04:18.510Z,1013.61
2018-08-12T02:04:44.645Z,1013.6
2018-08-12T02:05:10.799Z,1013.57
2018-08-12T02:05:36.989Z,1013.58
2018-08-12T02:06:03.157Z,1013.58
2018-08-12T02:06:29.302Z,1013.58
2018-08-12T02:06:55.475Z,1013.56
2018-08-12T02:07:21.612Z,1013.53
2018-08-12T02:07:47.740Z,1013.56
2018-08-12T02:08:13.880Z,1013.58
2018-08-12T02:08:40.013Z,1013.52
2018-08-12T02:09:06.155Z,1013.54
2018-08-12T02:09:32.329Z,1013.56
2018-08-12T02:09:58.522Z,1013.54
2018-08-12T02:10:24.957Z,1013.55
2018-08-12T02:10:51.138Z,1013.51
2018-08-12T02:11:17.236Z,1013.48
2018-08-12T02:11:43.377Z,1013.49
2018-08-12T02:12:09.512Z,1013.5
2018-08-12T02:12:35.644Z,1013.47
2018-08-12T02:13:01.775Z,1013.46
2018-08-12T02:13:27.926Z,1013.42
2018-08-12T02:13:54.104Z,1013.46
2018-08-12T02:14:20.317Z,1013.43
2018-08-12T02:14:46.446Z,1013.42
2018-08-12T02:15:12.573Z,1013.42
2018-08-12T02:15:38.741Z,1013.45
2018-08-12T02:16:04.874Z,1013.44
2018-08-12T02:16:31.005Z,1013.43
2018-08-12T02:16:57.143Z,1013.42
2018-08-12T02:17:23.311Z,1013.39
2018-08-12T02:17:49.546Z,1013.36
2018-08-12T02:18:15.840Z,1013.39
2018-08-12T02:18:41.972Z,1013.4
2018-08-12T02:19:08.136Z,1013.39
2018-08-12T02:19:34.268Z,1013.36
2018-08-12T02:20:00.412Z,1013.34
2018-08-12T02:20:26.540Z,1013.36
2018-08-12T02:20:52.675Z,1013.38
2018-08-12T02:21:18.828Z,1013.37
2018-08-12T02:21:44.963Z,1013.37
2018-08-12T02:22:11.125Z,1013.34
2018-08-12T02:22:37.267Z,1013.33
2018-08-12T02:23:03.419Z,1013.31
2018-08-12T02:23:29.558Z,1013.34
2018-08-12T02:23:55.716Z,1013.31
2018-08-12T02:24:21.849Z,1013.31
2018-08-12T02:24:47.992Z,1013.31
2018-08-12T02:25:14.124Z,1013.27
2018-08-12T02:25:40.266Z,1013.26
2018-08-12T02:26:06.393Z,1013.24
2018-08-12T02:26:32.529Z,1013.25
2018-08-12T02:26:58.692Z,1013.25
2018-08-12T02:27:24.830Z,1013.26
2018-08-12T02:27:51.007Z,1013.26
2018-08-12T02:28:17.151Z,1013.27
2018-08-12T02:28:43.303Z,1013.24
2018-08-12T02:29:09.430Z,1013.2
2018-08-12T02:29:35.565Z,1013.19
2018-08-12T02:30:01.719Z,1013.15
2018-08-12T02:30:27.889Z,1013.15
2018-08-12T02:30:54.021Z,1013.12
2018-08-12T02:31:20.158Z,1013.16
2018-08-12T02:31:46.343Z,1013.15
2018-08-12T02:32:12.523Z,1013.15
2018-08-12T02:32:38.662Z,1013.16
2018-08-12T02:33:04.794Z,1013.14
2018-08-12T02:33:30.945Z,1013.12
2018-08-12T02:33:57.078Z,1013.1
2018-08-12T02:34:23.212Z,1013.09
2018-08-12T02:34:49.371Z,1013.11
2018-08-12T02:35:15.508Z,1013.12
2018-08-12T02:35:41.673Z,1013.09
2018-08-12T02:36:07.847Z,1013.08
2018-08-12T02:36:33.998Z,1013.13
2018-08-12T02:37:00.154Z,1013.12
2018-08-12T02:37:26.285Z,1013.13
2018-08-12T02:37:52.441Z,1013.14
2018-08-12T02:38:18.604Z,1013.14
2018-08-12T02:38:44.792Z,1013.14
2018-08-12T02:39:10.927Z,1013.14
2018-08-12T02:39:37.089Z,1013.12
2018-08-12T02:40:03.242Z,1013.14
2018-08-12T02:40:29.424Z,1013.12
2018-08-12T02:40:55.552Z,1013.1
2018-08-12T02:41:21.692Z,1013.08
2018-08-12T02:41:47.830Z,1013.04
2018-08-12T02:42:13.984Z,1013.03
2018-08-12T02:42:40.167Z,1012.99
2018-08-12T02:43:06.305Z,1013.03
2018-08-12T02:43:32.465Z,1013
2018-08-12T02:43:58.619Z,1013
2018-08-12T02:44:24.780Z,1013.02
2018-08-12T02:44:50.911Z,1013.01
2018-08-12T02:45:17.091Z,1012.98
2018-08-12T02:45:43.230Z,1012.98
2018-08-12T02:46:09.391Z,1013
2018-08-12T02:46:35.545Z,1013
2018-08-12T02:47:01.673Z,1013
2018-08-12T02:47:27.828Z,1013.02
2018-08-12T02:47:53.973Z,1013
2018-08-12T02:48:20.119Z,1013.03
2018-08-12T02:48:46.256Z,1013.05
2018-08-12T02:49:12.393Z,1013.03
2018-08-12T02:49:38.543Z,1012.99
2018-08-12T02:50:04.705Z,1013.02
2018-08-12T02:50:30.886Z,1013.01
2018-08-12T02:50:57.024Z,1013.01
2018-08-12T02:51:23.159Z,1013.02
2018-08-12T02:51:49.284Z,1012.97
2018-08-12T02:52:15.449Z,1013.03
2018-08-12T02:52:41.679Z,1012.98
2018-08-12T02:53:07.812Z,1013.06
2018-08-12T02:53:33.944Z,1013.03
2018-08-12T02:54:00.103Z,1013.03
2018-08-12T02:54:26.239Z,1013.01
2018-08-12T02:54:52.391Z,1013
2018-08-12T02:55:18.535Z,1013.01
2018-08-12T02:55:44.668Z,1013.03
2018-08-12T02:56:10.806Z,1013.04
2018-08-12T02:56:36.962Z,1013.04
2018-08-12T02:57:03.093Z,1013.04
2018-08-12T02:57:29.304Z,1012.99
2018-08-12T02:57:55.509Z,1012.99
2018-08-12T02:58:21.640Z,1012.97
2018-08-12T02:58:47.793Z,1012.98
2018-08-12T02:59:13.939Z,1013
2018-08-12T02:59:40.075Z,1013
2018-08-12T03:00:06.230Z,1012.93
2018-08-12T03:00:32.384Z,1012.99
2018-08-12T03:00:58.513Z,1013.03
2018-08-12T03:01:24.679Z,1012.99
2018-08-12T03:01:50.855Z,1012.95
2018-08-12T03:02:16.998Z,1012.99
2018-08-12T03:02:43.160Z,1012.95
2018-08-12T03:03:09.347Z,1012.99
2018-08-12T03:03:35.495Z,1012.96
2018-08-12T03:04:01.649Z,1012.96
2018-08-12T03:04:27.823Z,1012.99
2018-08-12T03:04:53.955Z,1012.97
2018-08-12T03:05:20.121Z,1012.97
2018-08-12T03:05:46.262Z,1012.99
2018-08-12T03:06:12.397Z,1012.97
2018-08-12T03:06:38.537Z,1012.97
2018-08-12T03:07:04.668Z,1012.94
2018-08-12T03:07:30.833Z,1012.92
2018-08-12T03:07:56.967Z,1012.92
2018-08-12T03:08:23.121Z,1012.93
2018-08-12T03:08:49.258Z,1012.9
2018-08-12T03:09:15.471Z,1012.89
2018-08-12T03:09:41.596Z,1012.9
2018-08-12T03:10:07.732Z,1012.9
2018-08-12T03:10:33.904Z,1012.84
2018-08-12T03:11:00.080Z,1012.85
2018-08-12T03:11:26.211Z,1012.88
2018-08-12T03:11:52.377Z,1012.85
2018-08-12T03:12:18.556Z,1012.9
2018-08-12T03:12:44.734Z,1012.84
2018-08-12T03:13:10.870Z,1012.88
2018-08-12T03:13:37.025Z,1012.88
2018-08-12T03:14:03.196Z,1012.85
2018-08-12T03:14:29.358Z,1012.86
2018-08-12T03:14:55.486Z,1012.85
2018-08-12T03:15:21.639Z,1012.81
2018-08-12T03:15:47.806Z,1012.83
2018-08-12T03:16:13.941Z,1012.85
2018-08-12T03:16:40.094Z,1012.81
2018-08-12T03:17:06.245Z,1012.84
2018-08-12T03:17:32.424Z,1012.85
2018-08-12T03:17:58.567Z,1012.8
2018-08-12T03:18:24.704Z,1012.82
2018-08-12T03:18:50.868Z,1012.8
2018-08-12T03:19:17.002Z,1012.8
2018-08-12T03:19:43.185Z,1012.79
2018-08-12T03:20:09.344Z,1012.78
2018-08-12T03:20:35.503Z,1012.8
2018-08-12T03:21:01.640Z,1012.76
2018-08-12T03:21:27.774Z,1012.74
2018-08-12T03:21:53.927Z,1012.79
2018-08-12T03:22:20.134Z,1012.81
2018-08-12T03:22:46.243Z,1012.76
2018-08-12T03:23:12.401Z,1012.79
2018-08-12T03:23:38.576Z,1012.77
2018-08-12T03:24:04.735Z,1012.73
2018-08-12T03:24:30.879Z,1012.74
2018-08-12T03:24:57.016Z,1012.73
2018-08-12T03:25:23.166Z,1012.72
2018-08-12T03:25:49.344Z,1012.71
2018-08-12T03:26:15.523Z,1012.7
2018-08-12T03:26:41.664Z,1012.72
2018-08-12T03:27:07.836Z,1012.7
2018-08-12T03:27:34.015Z,1012.69
2018-08-12T03:28:00.148Z,1012.7
2018-08-12T03:28:26.312Z,1012.7
2018-08-12T03:28:52.466Z,1012.65
2018-08-12T03:29:18.604Z,1012.68
2018-08-12T03:29:44.734Z,1012.73
2018-08-12T03:30:11.060Z,1012.64
2018-08-12T03:30:37.045Z,1012.66
2018-08-12T03:31:03.246Z,1012.66
2018-08-12T03:31:29.406Z,1012.71
2018-08-12T03:31:55.535Z,1012.65
2018-08-12T03:32:21.675Z,1012.66
2018-08-12T03:32:47.830Z,1012.63
2018-08-12T03:33:13.964Z,1012.65
2018-08-12T03:33:40.099Z,1012.65
2018-08-12T03:34:06.232Z,1012.63
2018-08-12T03:34:32.406Z,1012.61
2018-08-12T03:34:58.532Z,1012.59
2018-08-12T03:35:24.672Z,1012.62
2018-08-12T03:35:50.798Z,1012.62
2018-08-12T03:36:16.937Z,1012.65
2018-08-12T03:36:43.068Z,1012.67
2018-08-12T03:37:09.207Z,1012.61
2018-08-12T03:37:35.344Z,1012.62
2018-08-12T03:38:01.473Z,1012.61
2018-08-12T03:38:27.612Z,1012.61
2018-08-12T03:38:53.757Z,1012.61
2018-08-12T03:39:19.910Z,1012.61
2018-08-12T03:39:46.044Z,1012.58
2018-08-12T03:40:12.183Z,1012.6
2018-08-12T03:40:38.321Z,1012.62
2018-08-12T03:41:04.450Z,1012.56
2018-08-12T03:41:30.579Z,1012.59
2018-08-12T03:41:56.725Z,1012.56
2018-08-12T03:42:22.885Z,1012.57
2018-08-12T03:42:49.021Z,1012.58
2018-08-12T03:43:15.152Z,1012.58
2018-08-12T03:43:41.310Z,1012.58
2018-08-12T03:44:07.451Z,1012.55
2018-08-12T03:44:33.590Z,1012.54
2018-08-12T03:44:59.728Z,1012.51
2018-08-12T03:45:25.859Z,1012.51
2018-08-12T03:45:51.997Z,1012.55
2018-08-12T03:46:18.119Z,1012.52
2018-08-12T03:46:44.249Z,1012.52
2018-08-12T03:47:10.387Z,1012.51
2018-08-12T03:47:36.522Z,1012.5
2018-08-12T03:48:02.657Z,1012.52
2018-08-12T03:48:28.790Z,1012.54
2018-08-12T03:48:54.944Z,1012.46
2018-08-12T03:49:21.072Z,1012.51
2018-08-12T03:49:47.232Z,1012.48
2018-08-12T03:50:13.347Z,1012.56
2018-08-12T03:50:39.503Z,1012.5
2018-08-12T03:51:05.644Z,1012.52
2018-08-12T03:51:31.779Z,1012.51
2018-08-12T03:51:57.913Z,1012.5
2018-08-12T03:52:24.052Z,1012.47
2018-08-12T03:52:50.184Z,1012.44
2018-08-12T03:53:16.318Z,1012.48
2018-08-12T03:53:42.470Z,1012.51
2018-08-12T03:54:08.605Z,1012.48
2018-08-12T03:54:34.741Z,1012.48
2018-08-12T03:55:00.879Z,1012.46
2018-08-12T03:55:27.008Z,1012.48
2018-08-12T03:55:53.149Z,1012.46
2018-08-12T03:56:19.278Z,1012.47
2018-08-12T03:56:45.421Z,1012.48
2018-08-12T03:57:11.555Z,1012.48
2018-08-12T03:57:37.714Z,1012.46
2018-08-12T03:58:03.854Z,1012.43
2018-08-12T03:58:29.991Z,1012.46
2018-08-12T03:58:56.151Z,1012.46
2018-08-12T03:59:22.296Z,1012.42
2018-08-12T03:59:48.432Z,1012.44
2018-08-12T04:00:14.557Z,1012.4
2018-08-12T04:00:40.699Z,1012.43
2018-08-12T04:01:06.829Z,1012.4
2018-08-12T04:01:32.970Z,1012.4
2018-08-12T04:01:59.102Z,1012.39
2018-08-12T04:02:25.358Z,1012.38
2018-08-12T04:02:51.371Z,1012.4
2018-08-12T04:03:17.505Z,1012.37
2018-08-12T04:03:43.635Z,1012.4
2018-08-12T04:04:09.779Z,1012.38
2018-08-12T04:04:35.912Z,1012.34
2018-08-12T04:05:02.050Z,1012.39
2018-08-12T04:05:28.188Z,1012.36
2018-08-12T04:05:54.328Z,1012.38
2018-08-12T04:06:20.460Z,1012.38
2018-08-12T04:06:46.592Z,1012.42
2018-08-12T04:07:12.721Z,1012.38
2018-08-12T04:07:38.864Z,1012.39
2018-08-12T04:08:05.000Z,1012.41
2018-08-12T04:08:31.135Z,1012.37
2018-08-12T04:08:57.268Z,1012.37
2018-08-12T04:09:23.411Z,1012.36
2018-08-12T04:09:49.550Z,1012.33
2018-08-12T04:10:15.689Z,1012.36
2018-08-12T04:10:41.845Z,1012.37
2018-08-12T04:11:07.970Z,1012.38
2018-08-12T04:11:34.099Z,1012.36
2018-08-12T04:12:00.233Z,1012.38
2018-08-12T04:12:26.368Z,1012.37
2018-08-12T04:12:52.492Z,1012.37
2018-08-12T04:13:18.624Z,1012.34
2018-08-12T04:13:44.762Z,1012.32
2018-08-12T04:14:10.897Z,1012.3
2018-08-12T04:14:37.037Z,1012.33
2018-08-12T04:15:03.192Z,1012.33
2018-08-12T04:15:29.333Z,1012.32
2018-08-12T04:15:55.491Z,1012.32
2018-08-12T04:16:21.619Z,1012.32
2018-08-12T04:16:47.786Z,1012.31
2018-08-12T04:17:13.942Z,1012.31
2018-08-12T04:17:40.074Z,1012.28
2018-08-12T04:18:06.250Z,1012.29
2018-08-12T04:18:32.406Z,1012.31
2018-08-12T04:18:58.567Z,1012.24
2018-08-12T04:19:24.672Z,1012.31
2018-08-12T04:19:50.825Z,1012.27
2018-08-12T04:20:16.953Z,1012.31
2018-08-12T04:20:43.097Z,1012.29
2018-08-12T04:21:09.215Z,1012.28
2018-08-12T04:21:35.368Z,1012.28
2018-08-12T04:22:01.507Z,1012.3
2018-08-12T04:22:27.668Z,1012.3
2018-08-12T04:22:53.797Z,1012.29
2018-08-12T04:23:19.930Z,1012.31
2018-08-12T04:23:46.067Z,1012.28
2018-08-12T04:24:12.209Z,1012.34
2018-08-12T04:24:38.333Z,1012.28
2018-08-12T04:25:04.472Z,1012.32
2018-08-12T04:25:30.601Z,1012.36
2018-08-12T04:25:56.739Z,1012.35
2018-08-12T04:26:22.865Z,1012.33
2018-08-12T04:26:49.019Z,1012.3
2018-08-12T04:27:15.150Z,1012.31
2018-08-12T04:27:41.308Z,1012.3
2018-08-12T04:28:07.446Z,1012.3
2018-08-12T04:28:33.607Z,1012.33
2018-08-12T04:28:59.782Z,1012.32
2018-08-12T04:29:25.921Z,1012.32
2018-08-12T04:29:52.076Z,1012.3
2018-08-12T04:30:18.212Z,1012.31
2018-08-12T04:30:44.342Z,1012.3
2018-08-12T04:31:10.474Z,1012.29
2018-08-12T04:31:36.655Z,1012.29
2018-08-12T04:32:02.796Z,1012.28
2018-08-12T04:32:28.929Z,1012.35
2018-08-12T04:32:55.082Z,1012.29
2018-08-12T04:33:21.214Z,1012.28
2018-08-12T04:33:47.352Z,1012.29
2018-08-12T04:34:13.502Z,1012.27
2018-08-12T04:34:39.643Z,1012.26
2018-08-12T04:35:05.769Z,1012.3
2018-08-12T04:35:31.918Z,1012.26
2018-08-12T04:35:58.057Z,1012.26
2018-08-12T04:36:24.216Z,1012.24
2018-08-12T04:36:50.352Z,1012.22
2018-08-12T04:37:16.504Z,1012.23
2018-08-12T04:37:42.639Z,1012.25
2018-08-12T04:38:08.768Z,1012.21
2018-08-12T04:38:34.906Z,1012.21
2018-08-12T04:39:01.045Z,1012.21
2018-08-12T04:39:27.179Z,1012.22
2018-08-12T04:39:53.318Z,1012.23
2018-08-12T04:40:19.442Z,1012.19
2018-08-12T04:40:45.578Z,1012.18
2018-08-12T04:41:11.707Z,1012.2
2018-08-12T04:41:37.841Z,1012.17
2018-08-12T04:42:03.995Z,1012.17
2018-08-12T04:42:30.132Z,1012.16
2018-08-12T04:42:56.257Z,1012.15
2018-08-12T04:43:22.387Z,1012.15
2018-08-12T04:43:48.550Z,1012.17
2018-08-12T04:44:14.704Z,1012.13
2018-08-12T04:44:40.838Z,1012.12
2018-08-12T04:45:06.994Z,1012.14
2018-08-12T04:45:33.128Z,1012.15
2018-08-12T04:45:59.321Z,1012.12
2018-08-12T04:46:25.388Z,1012.15
2018-08-12T04:46:51.523Z,1012.12
2018-08-12T04:47:17.651Z,1012.13
2018-08-12T04:47:43.792Z,1012.11
2018-08-12T04:48:09.921Z,1012.15
2018-08-12T04:48:36.060Z,1012.11
2018-08-12T04:49:02.192Z,1012.13
2018-08-12T04:49:28.325Z,1012.13
2018-08-12T04:49:54.458Z,1012.12
2018-08-12T04:50:20.589Z,1012.12
2018-08-12T04:50:46.727Z,1012.12
2018-08-12T04:51:12.862Z,1012.09
2018-08-12T04:51:38.993Z,1012.13
2018-08-12T04:52:05.120Z,1012.11
2018-08-12T04:52:31.255Z,1012.07
2018-08-12T04:52:57.390Z,1012.07
2018-08-12T04:53:23.521Z,1012.09
2018-08-12T04:53:49.659Z,1012.08
2018-08-12T04:54:15.792Z,1012.13
2018-08-12T04:54:41.931Z,1012.08
2018-08-12T04:55:08.063Z,1012.11
2018-08-12T04:55:34.220Z,1012.08
2018-08-12T04:56:00.361Z,1012.04
2018-08-12T04:56:26.486Z,1012.06
2018-08-12T04:56:52.622Z,1012.09
2018-08-12T04:57:18.766Z,1012.08
2018-08-12T04:57:44.917Z,1012.09
2018-08-12T04:58:11.063Z,1012.09
2018-08-12T04:58:37.249Z,1012.06
2018-08-12T04:59:03.386Z,1012.06
2018-08-12T04:59:29.536Z,1012.06
2018-08-12T04:59:55.668Z,1012.06
2018-08-12T05:00:21.803Z,1012.03
2018-08-12T05:00:47.938Z,1012.06
2018-08-12T05:01:14.063Z,1012.03
2018-08-12T05:01:40.254Z,1012.08
2018-08-12T05:02:06.385Z,1012.07
2018-08-12T05:02:32.515Z,1012.07
2018-08-12T05:02:58.647Z,1012.13
2018-08-12T05:03:24.812Z,1012.05
2018-08-12T05:03:50.946Z,1012.11
2018-08-12T05:04:17.102Z,1012.13
2018-08-12T05:04:43.243Z,1012.1
2018-08-12T05:05:09.397Z,1012.06
2018-08-12T05:05:35.536Z,1012.06
2018-08-12T05:06:01.685Z,1012.04
2018-08-12T05:06:27.871Z,1012.01
2018-08-12T05:06:53.995Z,1012.02
2018-08-12T05:07:20.134Z,1012.07
2018-08-12T05:07:46.270Z,1012.02
2018-08-12T05:08:12.425Z,1012.04
2018-08-12T05:08:38.555Z,1012.04
2018-08-12T05:09:04.697Z,1012.02
2018-08-12T05:09:30.834Z,1011.99
2018-08-12T05:09:56.972Z,1012.02
2018-08-12T05:10:23.129Z,1011.98
2018-08-12T05:10:49.255Z,1012.02
2018-08-12T05:11:15.390Z,1012.01
2018-08-12T05:11:41.525Z,1012.02
2018-08-12T05:12:07.682Z,1012.04
2018-08-12T05:12:33.818Z,1012.03
2018-08-12T05:12:59.976Z,1012.04
2018-08-12T05:13:26.108Z,1012.03
2018-08-12T05:13:52.273Z,1012.03
2018-08-12T05:14:18.402Z,1012.04
2018-08-12T05:14:44.531Z,1012.03
2018-08-12T05:15:10.671Z,1012.07
2018-08-12T05:15:36.808Z,1012.03
2018-08-12T05:16:02.936Z,1012.01
2018-08-12T05:16:29.071Z,1012.01
2018-08-12T05:16:55.206Z,1012.03
2018-08-12T05:17:21.343Z,1012
2018-08-12T05:17:47.481Z,1012